sensor_id;sensor_type;location;lat;lon;timestamp;P1;durP1;ratioP1;P2;durP2;ratioP2
71637;SDS011;59485;43.542;-5.676;2022-09-24T00:00:42;14.68;;;8.77;;
71637;SDS011;59485;43.542;-5.676;2022-09-24T00:03:09;10.97;;;6.97;;
71637;SDS011;59485;43.542;-5.676;2022-09-24T00:05:38;14.00;;;8.13;;
71637;SDS011;59485;43.542;-5.676;2022-09-24T00:08:07;16.50;;;8.35;;
71637;SDS011;59485;43.542;-5.676;2022-09-24T00:10:36;13.65;;;6.82;;
71637;SDS011;59485;43.542;-5.676;2022-09-24T00:13:04;9.88;;;5.32;;
71637;SDS011;59485;43.542;-5.676;2022-09-24T00:15:38;14.27;;;5.77;;
71637;SDS011;59485;43.542;-5.676;2022-09-24T00:18:05;14.82;;;6.47;;
71637;SDS011;59485;43.542;-5.676;2022-09-24T00:20:32;18.80;;;7.82;;
71637;SDS011;59485;43.542;-5.676;2022-09-24T00:23:01;25.10;;;9.43;;
71637;SDS011;59485;43.542;-5.676;2022-09-24T00:25:27;17.90;;;7.15;;
71637;SDS011;59485;43.542;-5.676;2022-09-24T00:28:12;21.90;;;9.03;;
71637;SDS011;59485;43.542;-5.676;2022-09-24T00:30:38;21.20;;;8.40;;
71637;SDS011;59485;43.542;-5.676;2022-09-24T00:33:05;14.07;;;5.75;;
71637;SDS011;59485;43.542;-5.676;2022-09-24T00:35:33;16.10;;;6.28;;
71637;SDS011;59485;43.542;-5.676;2022-09-24T00:38:02;14.02;;;5.53;;
71637;SDS011;59485;43.542;-5.676;2022-09-24T00:40:30;14.97;;;7.73;;
71637;SDS011;59485;43.542;-5.676;2022-09-24T00:42:57;21.17;;;8.85;;
71637;SDS011;59485;43.542;-5.676;2022-09-24T00:45:23;20.17;;;9.82;;
71637;SDS011;59485;43.542;-5.676;2022-09-24T00:47:49;24.95;;;9.20;;
71637;SDS011;59485;43.542;-5.676;2022-09-24T00:55:22;18.63;;;4.47;;
71637;SDS011;59485;43.542;-5.676;2022-09-24T00:57:50;16.77;;;4.88;;
71637;SDS011;59485;43.542;-5.676;2022-09-24T01:00:20;11.00;;;3.85;;
71637;SDS011;59485;43.542;-5.676;2022-09-24T01:02:46;12.77;;;4.20;;
71637;SDS011;59485;43.542;-5.676;2022-09-24T01:05:16;13.03;;;3.57;;
71637;SDS011;59485;43.542;-5.676;2022-09-24T01:07:42;12.88;;;3.38;;
71637;SDS011;59485;43.542;-5.676;2022-09-24T01:10:08;12.63;;;3.55;;
71637;SDS011;59485;43.542;-5.676;2022-09-24T01:12:46;7.75;;;2.75;;
71637;SDS011;59485;43.542;-5.676;2022-09-24T01:15:24;10.35;;;3.28;;
71637;SDS011;59485;43.542;-5.676;2022-09-24T01:18:32;9.93;;;2.60;;
71637;SDS011;59485;43.542;-5.676;2022-09-24T01:31:43;7.60;;;1.57;;
71637;SDS011;59485;43.542;-5.676;2022-09-24T01:34:16;8.98;;;2.05;;
71637;SDS011;59485;43.542;-5.676;2022-09-24T01:36:46;8.73;;;1.55;;
71637;SDS011;59485;43.542;-5.676;2022-09-24T01:39:14;12.93;;;1.67;;
71637;SDS011;59485;43.542;-5.676;2022-09-24T01:41:42;9.95;;;2.20;;
71637;SDS011;59485;43.542;-5.676;2022-09-24T01:44:09;7.70;;;2.17;;
71637;SDS011;59485;43.542;-5.676;2022-09-24T01:46:39;12.25;;;1.55;;
71637;SDS011;59485;43.542;-5.676;2022-09-24T01:49:06;8.93;;;1.90;;
71637;SDS011;59485;43.542;-5.676;2022-09-24T01:51:51;11.10;;;1.38;;
71637;SDS011;59485;43.542;-5.676;2022-09-24T01:54:30;9.85;;;1.83;;
71637;SDS011;59485;43.542;-5.676;2022-09-24T01:59:40;11.00;;;1.70;;
71637;SDS011;59485;43.542;-5.676;2022-09-24T02:02:14;11.23;;;2.00;;
71637;SDS011;59485;43.542;-5.676;2022-09-24T02:04:45;13.88;;;1.48;;
71637;SDS011;59485;43.542;-5.676;2022-09-24T02:07:17;9.90;;;1.80;;
71637;SDS011;59485;43.542;-5.676;2022-09-24T02:09:51;9.90;;;2.03;;
71637;SDS011;59485;43.542;-5.676;2022-09-24T02:12:18;8.80;;;1.63;;
71637;SDS011;59485;43.542;-5.676;2022-09-24T02:14:54;15.20;;;1.65;;
71637;SDS011;59485;43.542;-5.676;2022-09-24T02:17:30;9.57;;;1.60;;
71637;SDS011;59485;43.542;-5.676;2022-09-24T02:20:00;12.48;;;2.20;;
71637;SDS011;59485;43.542;-5.676;2022-09-24T02:22:28;10.52;;;1.67;;
71637;SDS011;59485;43.542;-5.676;2022-09-24T02:24:56;11.57;;;1.83;;
71637;SDS011;59485;43.542;-5.676;2022-09-24T02:27:24;11.15;;;2.40;;
71637;SDS011;59485;43.542;-5.676;2022-09-24T02:29:53;15.10;;;2.47;;
71637;SDS011;59485;43.542;-5.676;2022-09-24T02:32:23;14.20;;;1.55;;
71637;SDS011;59485;43.542;-5.676;2022-09-24T02:34:53;17.02;;;3.10;;
71637;SDS011;59485;43.542;-5.676;2022-09-24T02:37:22;13.30;;;2.40;;
71637;SDS011;59485;43.542;-5.676;2022-09-24T02:39:48;9.90;;;2.45;;
71637;SDS011;59485;43.542;-5.676;2022-09-24T02:42:14;12.47;;;2.50;;
71637;SDS011;59485;43.542;-5.676;2022-09-24T02:44:42;13.25;;;2.30;;
71637;SDS011;59485;43.542;-5.676;2022-09-24T02:47:08;10.47;;;2.60;;
71637;SDS011;59485;43.542;-5.676;2022-09-24T02:49:34;11.20;;;2.45;;
71637;SDS011;59485;43.542;-5.676;2022-09-24T02:51:59;11.17;;;2.20;;
71637;SDS011;59485;43.542;-5.676;2022-09-24T02:54:25;12.73;;;2.78;;
71637;SDS011;59485;43.542;-5.676;2022-09-24T02:56:51;13.60;;;2.10;;
71637;SDS011;59485;43.542;-5.676;2022-09-24T02:59:17;9.18;;;1.30;;
71637;SDS011;59485;43.542;-5.676;2022-09-24T03:01:43;7.78;;;1.67;;
71637;SDS011;59485;43.542;-5.676;2022-09-24T03:04:09;11.13;;;1.70;;
71637;SDS011;59485;43.542;-5.676;2022-09-24T03:06:36;12.70;;;2.00;;
71637;SDS011;59485;43.542;-5.676;2022-09-24T03:09:01;14.75;;;2.35;;
71637;SDS011;59485;43.542;-5.676;2022-09-24T03:11:28;10.55;;;1.83;;
71637;SDS011;59485;43.542;-5.676;2022-09-24T03:13:57;11.25;;;1.70;;
71637;SDS011;59485;43.542;-5.676;2022-09-24T03:16:23;9.07;;;1.60;;
71637;SDS011;59485;43.542;-5.676;2022-09-24T03:18:49;9.52;;;1.63;;
71637;SDS011;59485;43.542;-5.676;2022-09-24T03:21:15;10.20;;;1.97;;
71637;SDS011;59485;43.542;-5.676;2022-09-24T03:23:43;9.02;;;1.55;;
71637;SDS011;59485;43.542;-5.676;2022-09-24T03:26:09;8.93;;;1.23;;
71637;SDS011;59485;43.542;-5.676;2022-09-24T03:28:35;13.27;;;2.33;;
71637;SDS011;59485;43.542;-5.676;2022-09-24T03:31:01;9.27;;;1.80;;
71637;SDS011;59485;43.542;-5.676;2022-09-24T03:36:01;11.03;;;3.00;;
71637;SDS011;59485;43.542;-5.676;2022-09-24T03:38:31;16.58;;;4.28;;
71637;SDS011;59485;43.542;-5.676;2022-09-24T03:41:00;12.15;;;3.75;;
71637;SDS011;59485;43.542;-5.676;2022-09-24T03:43:30;18.15;;;4.85;;
71637;SDS011;59485;43.542;-5.676;2022-09-24T03:45:56;13.82;;;4.63;;
71637;SDS011;59485;43.542;-5.676;2022-09-24T03:48:22;14.57;;;3.70;;
71637;SDS011;59485;43.542;-5.676;2022-09-24T03:50:48;19.92;;;4.68;;
71637;SDS011;59485;43.542;-5.676;2022-09-24T03:53:14;10.43;;;3.63;;
71637;SDS011;59485;43.542;-5.676;2022-09-24T03:55:41;13.73;;;4.30;;
71637;SDS011;59485;43.542;-5.676;2022-09-24T03:58:13;14.77;;;3.77;;
71637;SDS011;59485;43.542;-5.676;2022-09-24T04:00:39;9.38;;;2.67;;
71637;SDS011;59485;43.542;-5.676;2022-09-24T04:03:05;13.00;;;2.35;;
71637;SDS011;59485;43.542;-5.676;2022-09-24T04:05:31;9.30;;;2.00;;
71637;SDS011;59485;43.542;-5.676;2022-09-24T04:08:00;8.90;;;2.10;;
71637;SDS011;59485;43.542;-5.676;2022-09-24T04:10:26;8.73;;;1.70;;
71637;SDS011;59485;43.542;-5.676;2022-09-24T04:12:52;10.20;;;1.67;;
71637;SDS011;59485;43.542;-5.676;2022-09-24T04:15:17;8.10;;;1.30;;
71637;SDS011;59485;43.542;-5.676;2022-09-24T04:17:53;6.60;;;1.40;;
71637;SDS011;59485;43.542;-5.676;2022-09-24T04:20:21;8.50;;;1.27;;
71637;SDS011;59485;43.542;-5.676;2022-09-24T04:22:48;7.78;;;1.40;;
71637;SDS011;59485;43.542;-5.676;2022-09-24T04:25:15;6.82;;;1.20;;
71637;SDS011;59485;43.542;-5.676;2022-09-24T04:27:44;8.40;;;1.38;;
71637;SDS011;59485;43.542;-5.676;2022-09-24T04:30:11;7.43;;;1.40;;
71637;SDS011;59485;43.542;-5.676;2022-09-24T04:32:41;8.13;;;0.93;;
71637;SDS011;59485;43.542;-5.676;2022-09-24T04:35:07;8.23;;;0.85;;
71637;SDS011;59485;43.542;-5.676;2022-09-24T04:37:33;4.85;;;1.10;;
71637;SDS011;59485;43.542;-5.676;2022-09-24T04:40:02;7.57;;;0.73;;
71637;SDS011;59485;43.542;-5.676;2022-09-24T04:42:29;4.32;;;0.60;;
71637;SDS011;59485;43.542;-5.676;2022-09-24T04:44:59;6.33;;;1.00;;
71637;SDS011;59485;43.542;-5.676;2022-09-24T04:47:25;7.53;;;1.33;;
71637;SDS011;59485;43.542;-5.676;2022-09-24T04:49:50;7.80;;;1.40;;
71637;SDS011;59485;43.542;-5.676;2022-09-24T04:52:16;4.60;;;0.80;;
71637;SDS011;59485;43.542;-5.676;2022-09-24T04:54:43;7.72;;;1.10;;
71637;SDS011;59485;43.542;-5.676;2022-09-24T04:57:11;5.73;;;1.13;;
71637;SDS011;59485;43.542;-5.676;2022-09-24T04:59:40;6.05;;;1.13;;
71637;SDS011;59485;43.542;-5.676;2022-09-24T05:02:05;5.30;;;0.57;;
71637;SDS011;59485;43.542;-5.676;2022-09-24T05:04:32;6.90;;;0.98;;
71637;SDS011;59485;43.542;-5.676;2022-09-24T05:06:57;5.60;;;0.73;;
71637;SDS011;59485;43.542;-5.676;2022-09-24T05:09:23;8.77;;;1.17;;
71637;SDS011;59485;43.542;-5.676;2022-09-24T05:11:48;5.22;;;0.82;;
71637;SDS011;59485;43.542;-5.676;2022-09-24T05:14:15;4.53;;;0.90;;
71637;SDS011;59485;43.542;-5.676;2022-09-24T05:16:41;6.47;;;1.10;;
71637;SDS011;59485;43.542;-5.676;2022-09-24T05:19:06;6.43;;;1.13;;
71637;SDS011;59485;43.542;-5.676;2022-09-24T05:21:32;6.77;;;1.23;;
71637;SDS011;59485;43.542;-5.676;2022-09-24T05:23:57;5.43;;;1.10;;
71637;SDS011;59485;43.542;-5.676;2022-09-24T05:26:23;5.60;;;0.80;;
71637;SDS011;59485;43.542;-5.676;2022-09-24T05:29:07;4.10;;;1.02;;
71637;SDS011;59485;43.542;-5.676;2022-09-24T05:31:33;5.77;;;1.50;;
71637;SDS011;59485;43.542;-5.676;2022-09-24T05:33:58;5.50;;;1.00;;
71637;SDS011;59485;43.542;-5.676;2022-09-24T05:36:23;10.02;;;2.47;;
71637;SDS011;59485;43.542;-5.676;2022-09-24T05:38:51;17.20;;;7.63;;
71637;SDS011;59485;43.542;-5.676;2022-09-24T05:41:18;13.43;;;7.13;;
71637;SDS011;59485;43.542;-5.676;2022-09-24T05:43:43;15.57;;;6.20;;
71637;SDS011;59485;43.542;-5.676;2022-09-24T05:46:09;10.40;;;3.63;;
71637;SDS011;59485;43.542;-5.676;2022-09-24T05:48:34;10.03;;;3.97;;
71637;SDS011;59485;43.542;-5.676;2022-09-24T05:51:00;11.47;;;2.37;;
71637;SDS011;59485;43.542;-5.676;2022-09-24T05:53:26;7.60;;;1.60;;
71637;SDS011;59485;43.542;-5.676;2022-09-24T05:55:51;5.90;;;1.13;;
71637;SDS011;59485;43.542;-5.676;2022-09-24T05:58:17;6.73;;;1.23;;
71637;SDS011;59485;43.542;-5.676;2022-09-24T06:00:43;5.57;;;1.10;;
71637;SDS011;59485;43.542;-5.676;2022-09-24T06:03:12;5.85;;;0.90;;
71637;SDS011;59485;43.542;-5.676;2022-09-24T06:05:43;4.88;;;0.98;;
71637;SDS011;59485;43.542;-5.676;2022-09-24T06:08:10;3.90;;;0.87;;
71637;SDS011;59485;43.542;-5.676;2022-09-24T06:10:39;2.90;;;0.80;;
71637;SDS011;59485;43.542;-5.676;2022-09-24T06:13:05;4.78;;;1.10;;
71637;SDS011;59485;43.542;-5.676;2022-09-24T06:15:31;5.50;;;0.90;;
71637;SDS011;59485;43.542;-5.676;2022-09-24T06:17:58;5.50;;;0.93;;
71637;SDS011;59485;43.542;-5.676;2022-09-24T06:20:24;6.23;;;0.70;;
71637;SDS011;59485;43.542;-5.676;2022-09-24T06:22:49;3.00;;;0.63;;
71637;SDS011;59485;43.542;-5.676;2022-09-24T06:25:18;5.00;;;0.70;;
71637;SDS011;59485;43.542;-5.676;2022-09-24T06:27:43;5.13;;;0.80;;
71637;SDS011;59485;43.542;-5.676;2022-09-24T06:30:09;5.27;;;1.10;;
71637;SDS011;59485;43.542;-5.676;2022-09-24T06:32:35;6.87;;;1.10;;
71637;SDS011;59485;43.542;-5.676;2022-09-24T06:35:01;5.78;;;0.70;;
71637;SDS011;59485;43.542;-5.676;2022-09-24T06:37:27;4.73;;;0.87;;
71637;SDS011;59485;43.542;-5.676;2022-09-24T06:39:52;6.33;;;0.90;;
71637;SDS011;59485;43.542;-5.676;2022-09-24T06:42:18;3.33;;;0.40;;
71637;SDS011;59485;43.542;-5.676;2022-09-24T06:44:44;6.20;;;0.80;;
71637;SDS011;59485;43.542;-5.676;2022-09-24T06:47:10;3.80;;;0.80;;
71637;SDS011;59485;43.542;-5.676;2022-09-24T06:49:36;6.40;;;1.00;;
71637;SDS011;59485;43.542;-5.676;2022-09-24T06:52:02;6.80;;;0.80;;
71637;SDS011;59485;43.542;-5.676;2022-09-24T06:54:28;5.93;;;0.60;;
71637;SDS011;59485;43.542;-5.676;2022-09-24T06:56:54;5.83;;;0.87;;
71637;SDS011;59485;43.542;-5.676;2022-09-24T06:59:19;3.85;;;0.65;;
71637;SDS011;59485;43.542;-5.676;2022-09-24T07:01:45;6.50;;;1.00;;
71637;SDS011;59485;43.542;-5.676;2022-09-24T07:04:10;6.77;;;0.60;;
71637;SDS011;59485;43.542;-5.676;2022-09-24T07:06:36;6.93;;;0.90;;
71637;SDS011;59485;43.542;-5.676;2022-09-24T07:09:20;5.10;;;0.60;;
71637;SDS011;59485;43.542;-5.676;2022-09-24T07:11:46;3.97;;;1.00;;
71637;SDS011;59485;43.542;-5.676;2022-09-24T07:14:12;5.07;;;0.80;;
71637;SDS011;59485;43.542;-5.676;2022-09-24T07:16:38;11.67;;;4.27;;
71637;SDS011;59485;43.542;-5.676;2022-09-24T07:19:03;13.20;;;2.20;;
71637;SDS011;59485;43.542;-5.676;2022-09-24T07:21:29;15.37;;;3.17;;
71637;SDS011;59485;43.542;-5.676;2022-09-24T07:23:54;7.60;;;1.70;;
71637;SDS011;59485;43.542;-5.676;2022-09-24T07:26:20;7.43;;;2.00;;
71637;SDS011;59485;43.542;-5.676;2022-09-24T07:28:45;8.53;;;1.90;;
71637;SDS011;59485;43.542;-5.676;2022-09-24T07:31:11;7.45;;;1.80;;
71637;SDS011;59485;43.542;-5.676;2022-09-24T07:33:36;9.50;;;2.70;;
71637;SDS011;59485;43.542;-5.676;2022-09-24T07:36:05;9.40;;;3.83;;
71637;SDS011;59485;43.542;-5.676;2022-09-24T07:38:34;11.60;;;4.18;;
71637;SDS011;59485;43.542;-5.676;2022-09-24T07:41:02;10.05;;;3.70;;
71637;SDS011;59485;43.542;-5.676;2022-09-24T07:43:30;8.38;;;2.80;;
71637;SDS011;59485;43.542;-5.676;2022-09-24T07:45:57;7.55;;;2.95;;
71637;SDS011;59485;43.542;-5.676;2022-09-24T07:48:22;7.70;;;3.17;;
71637;SDS011;59485;43.542;-5.676;2022-09-24T07:50:48;7.53;;;3.30;;
71637;SDS011;59485;43.542;-5.676;2022-09-24T07:53:15;6.03;;;2.78;;
71637;SDS011;59485;43.542;-5.676;2022-09-24T07:55:41;8.50;;;3.33;;
71637;SDS011;59485;43.542;-5.676;2022-09-24T07:58:07;8.43;;;3.53;;
71637;SDS011;59485;43.542;-5.676;2022-09-24T08:00:35;9.68;;;3.65;;
71637;SDS011;59485;43.542;-5.676;2022-09-24T08:03:01;8.60;;;3.60;;
71637;SDS011;59485;43.542;-5.676;2022-09-24T08:05:27;7.25;;;2.95;;
71637;SDS011;59485;43.542;-5.676;2022-09-24T08:07:53;12.05;;;3.58;;
71637;SDS011;59485;43.542;-5.676;2022-09-24T08:10:21;9.52;;;3.47;;
71637;SDS011;59485;43.542;-5.676;2022-09-24T08:12:47;11.37;;;3.60;;
71637;SDS011;59485;43.542;-5.676;2022-09-24T08:15:13;11.20;;;4.18;;
71637;SDS011;59485;43.542;-5.676;2022-09-24T08:17:39;10.07;;;3.57;;
71637;SDS011;59485;43.542;-5.676;2022-09-24T08:20:05;7.05;;;3.00;;
71637;SDS011;59485;43.542;-5.676;2022-09-24T08:22:32;8.45;;;3.30;;
71637;SDS011;59485;43.542;-5.676;2022-09-24T08:24:57;10.10;;;3.53;;
71637;SDS011;59485;43.542;-5.676;2022-09-24T08:27:23;9.33;;;3.03;;
71637;SDS011;59485;43.542;-5.676;2022-09-24T08:29:49;7.38;;;2.83;;
71637;SDS011;59485;43.542;-5.676;2022-09-24T08:32:16;9.13;;;3.17;;
71637;SDS011;59485;43.542;-5.676;2022-09-24T08:34:42;16.43;;;4.80;;
71637;SDS011;59485;43.542;-5.676;2022-09-24T08:37:09;10.98;;;2.90;;
71637;SDS011;59485;43.542;-5.676;2022-09-24T08:39:36;8.65;;;3.10;;
71637;SDS011;59485;43.542;-5.676;2022-09-24T08:42:03;8.63;;;2.75;;
71637;SDS011;59485;43.542;-5.676;2022-09-24T08:44:38;10.10;;;3.10;;
71637;SDS011;59485;43.542;-5.676;2022-09-24T08:47:31;9.90;;;3.57;;
71637;SDS011;59485;43.542;-5.676;2022-09-24T09:00:23;9.60;;;3.60;;
71637;SDS011;59485;43.542;-5.676;2022-09-24T09:08:00;9.98;;;3.97;;
71637;SDS011;59485;43.542;-5.676;2022-09-24T09:10:35;10.43;;;3.23;;
71637;SDS011;59485;43.542;-5.676;2022-09-24T09:13:27;14.18;;;4.40;;
71637;SDS011;59485;43.542;-5.676;2022-09-24T09:16:24;9.43;;;3.35;;
71637;SDS011;59485;43.542;-5.676;2022-09-24T09:18:55;9.80;;;3.58;;
71637;SDS011;59485;43.542;-5.676;2022-09-24T09:21:35;7.53;;;3.70;;
71637;SDS011;59485;43.542;-5.676;2022-09-24T09:24:05;16.90;;;5.47;;
71637;SDS011;59485;43.542;-5.676;2022-09-24T09:26:42;12.82;;;4.97;;
71637;SDS011;59485;43.542;-5.676;2022-09-24T09:29:12;20.63;;;7.82;;
71637;SDS011;59485;43.542;-5.676;2022-09-24T09:34:50;9.17;;;2.70;;
71637;SDS011;59485;43.542;-5.676;2022-09-24T09:43:28;10.30;;;2.38;;
71637;SDS011;59485;43.542;-5.676;2022-09-24T09:48:27;8.43;;;1.50;;
71637;SDS011;59485;43.542;-5.676;2022-09-24T09:51:02;9.45;;;1.00;;
71637;SDS011;59485;43.542;-5.676;2022-09-24T09:53:30;10.90;;;1.52;;
71637;SDS011;59485;43.542;-5.676;2022-09-24T09:55:57;14.13;;;1.70;;
71637;SDS011;59485;43.542;-5.676;2022-09-24T09:58:25;12.77;;;1.60;;
71637;SDS011;59485;43.542;-5.676;2022-09-24T10:03:55;7.95;;;2.00;;
71637;SDS011;59485;43.542;-5.676;2022-09-24T10:06:34;8.98;;;1.33;;
71637;SDS011;59485;43.542;-5.676;2022-09-24T10:11:35;10.35;;;1.85;;
71637;SDS011;59485;43.542;-5.676;2022-09-24T10:14:04;8.30;;;1.20;;
71637;SDS011;59485;43.542;-5.676;2022-09-24T10:16:40;8.53;;;1.30;;
71637;SDS011;59485;43.542;-5.676;2022-09-24T10:19:13;5.80;;;0.65;;
71637;SDS011;59485;43.542;-5.676;2022-09-24T10:21:49;8.10;;;1.42;;
71637;SDS011;59485;43.542;-5.676;2022-09-24T10:24:20;4.82;;;0.55;;
71637;SDS011;59485;43.542;-5.676;2022-09-24T10:26:49;9.65;;;1.67;;
71637;SDS011;59485;43.542;-5.676;2022-09-24T10:29:17;11.60;;;1.27;;
71637;SDS011;59485;43.542;-5.676;2022-09-24T10:32:06;6.32;;;1.10;;
71637;SDS011;59485;43.542;-5.676;2022-09-24T10:34:40;7.47;;;0.82;;
71637;SDS011;59485;43.542;-5.676;2022-09-24T10:37:13;10.93;;;1.23;;
71637;SDS011;59485;43.542;-5.676;2022-09-24T10:39:40;6.95;;;1.30;;
71637;SDS011;59485;43.542;-5.676;2022-09-24T10:42:39;8.05;;;0.95;;
71637;SDS011;59485;43.542;-5.676;2022-09-24T10:44:58;10.93;;;1.13;;
71637;SDS011;59485;43.542;-5.676;2022-09-24T10:47:26;11.85;;;0.93;;
71637;SDS011;59485;43.542;-5.676;2022-09-24T10:52:46;7.55;;;0.90;;
71637;SDS011;59485;43.542;-5.676;2022-09-24T10:58:04;6.30;;;0.57;;
71637;SDS011;59485;43.542;-5.676;2022-09-24T11:12:14;5.72;;;0.80;;
71637;SDS011;59485;43.542;-5.676;2022-09-24T11:17:58;6.53;;;0.20;;
71637;SDS011;59485;43.542;-5.676;2022-09-24T11:24:00;6.07;;;0.70;;
71637;SDS011;59485;43.542;-5.676;2022-09-24T11:38:27;5.63;;;0.32;;
71637;SDS011;59485;43.542;-5.676;2022-09-24T11:41:05;6.10;;;1.15;;
71637;SDS011;59485;43.542;-5.676;2022-09-24T11:46:35;8.13;;;1.47;;
71637;SDS011;59485;43.542;-5.676;2022-09-24T11:52:11;7.88;;;0.82;;
71637;SDS011;59485;43.542;-5.676;2022-09-24T11:55:15;5.18;;;0.65;;
71637;SDS011;59485;43.542;-5.676;2022-09-24T11:58:03;6.07;;;0.70;;
71637;SDS011;59485;43.542;-5.676;2022-09-24T12:00:57;5.87;;;0.60;;
71637;SDS011;59485;43.542;-5.676;2022-09-24T12:06:06;4.50;;;0.77;;
71637;SDS011;59485;43.542;-5.676;2022-09-24T12:08:36;6.15;;;0.38;;
71637;SDS011;59485;43.542;-5.676;2022-09-24T12:16:43;6.72;;;1.25;;
71637;SDS011;59485;43.542;-5.676;2022-09-24T12:19:19;6.27;;;0.80;;
71637;SDS011;59485;43.542;-5.676;2022-09-24T12:21:49;8.80;;;0.70;;
71637;SDS011;59485;43.542;-5.676;2022-09-24T12:24:24;8.80;;;0.75;;
71637;SDS011;59485;43.542;-5.676;2022-09-24T12:26:55;8.85;;;0.65;;
71637;SDS011;59485;43.542;-5.676;2022-09-24T12:32:34;11.13;;;1.40;;
71637;SDS011;59485;43.542;-5.676;2022-09-24T12:43:57;4.43;;;0.57;;
71637;SDS011;59485;43.542;-5.676;2022-09-24T12:46:42;5.83;;;0.30;;
71637;SDS011;59485;43.542;-5.676;2022-09-24T12:51:51;7.60;;;1.00;;
71637;SDS011;59485;43.542;-5.676;2022-09-24T12:54:23;4.05;;;0.70;;
71637;SDS011;59485;43.542;-5.676;2022-09-24T12:57:38;7.57;;;0.73;;
71637;SDS011;59485;43.542;-5.676;2022-09-24T12:59:47;6.90;;;0.97;;
71637;SDS011;59485;43.542;-5.676;2022-09-24T13:02:22;6.20;;;1.27;;
71637;SDS011;59485;43.542;-5.676;2022-09-24T13:04:50;5.88;;;0.98;;
71637;SDS011;59485;43.542;-5.676;2022-09-24T13:12:45;11.70;;;1.80;;
71637;SDS011;59485;43.542;-5.676;2022-09-24T13:18:12;12.38;;;0.90;;
71637;SDS011;59485;43.542;-5.676;2022-09-24T13:20:55;8.75;;;0.50;;
71637;SDS011;59485;43.542;-5.676;2022-09-24T13:23:30;12.05;;;0.90;;
71637;SDS011;59485;43.542;-5.676;2022-09-24T13:42:19;7.22;;;0.60;;
71637;SDS011;59485;43.542;-5.676;2022-09-24T13:44:51;9.50;;;0.75;;
71637;SDS011;59485;43.542;-5.676;2022-09-24T13:47:27;10.13;;;0.60;;
71637;SDS011;59485;43.542;-5.676;2022-09-24T13:49:54;7.30;;;0.98;;
71637;SDS011;59485;43.542;-5.676;2022-09-24T13:52:37;9.17;;;0.63;;
71637;SDS011;59485;43.542;-5.676;2022-09-24T13:55:16;6.72;;;0.75;;
71637;SDS011;59485;43.542;-5.676;2022-09-24T13:57:47;9.57;;;0.80;;
71637;SDS011;59485;43.542;-5.676;2022-09-24T14:00:14;6.68;;;0.90;;
71637;SDS011;59485;43.542;-5.676;2022-09-24T14:05:45;12.93;;;2.03;;
71637;SDS011;59485;43.542;-5.676;2022-09-24T14:08:12;9.25;;;1.70;;
71637;SDS011;59485;43.542;-5.676;2022-09-24T14:10:39;8.30;;;1.42;;
71637;SDS011;59485;43.542;-5.676;2022-09-24T14:15:52;11.23;;;1.08;;
71637;SDS011;59485;43.542;-5.676;2022-09-24T14:18:20;8.20;;;1.17;;
71637;SDS011;59485;43.542;-5.676;2022-09-24T14:20:57;10.75;;;0.90;;
71637;SDS011;59485;43.542;-5.676;2022-09-24T14:23:26;7.05;;;1.10;;
71637;SDS011;59485;43.542;-5.676;2022-09-24T14:25:56;9.73;;;1.40;;
71637;SDS011;59485;43.542;-5.676;2022-09-24T14:28:23;7.15;;;1.35;;
71637;SDS011;59485;43.542;-5.676;2022-09-24T14:30:52;5.57;;;0.90;;
71637;SDS011;59485;43.542;-5.676;2022-09-24T14:33:24;6.18;;;0.68;;
71637;SDS011;59485;43.542;-5.676;2022-09-24T14:35:53;5.28;;;0.80;;
71637;SDS011;59485;43.542;-5.676;2022-09-24T14:38:24;6.15;;;0.55;;
71637;SDS011;59485;43.542;-5.676;2022-09-24T14:40:51;9.60;;;0.73;;
71637;SDS011;59485;43.542;-5.676;2022-09-24T14:45:49;5.38;;;0.68;;
71637;SDS011;59485;43.542;-5.676;2022-09-24T14:48:17;4.47;;;0.77;;
71637;SDS011;59485;43.542;-5.676;2022-09-24T14:50:50;8.43;;;0.43;;
71637;SDS011;59485;43.542;-5.676;2022-09-24T14:53:29;4.43;;;0.50;;
71637;SDS011;59485;43.542;-5.676;2022-09-24T14:56:00;6.88;;;0.60;;
71637;SDS011;59485;43.542;-5.676;2022-09-24T14:58:43;6.22;;;1.48;;
71637;SDS011;59485;43.542;-5.676;2022-09-24T15:01:12;9.30;;;1.10;;
71637;SDS011;59485;43.542;-5.676;2022-09-24T15:03:53;5.30;;;0.30;;
71637;SDS011;59485;43.542;-5.676;2022-09-24T15:06:23;5.45;;;0.60;;
71637;SDS011;59485;43.542;-5.676;2022-09-24T15:09:01;4.43;;;0.50;;
71637;SDS011;59485;43.542;-5.676;2022-09-24T15:11:28;4.00;;;0.67;;
71637;SDS011;59485;43.542;-5.676;2022-09-24T15:14:00;3.78;;;0.50;;
71637;SDS011;59485;43.542;-5.676;2022-09-24T15:16:41;6.10;;;0.88;;
71637;SDS011;59485;43.542;-5.676;2022-09-24T15:19:15;4.03;;;0.32;;
71637;SDS011;59485;43.542;-5.676;2022-09-24T15:21:46;5.68;;;0.40;;
71637;SDS011;59485;43.542;-5.676;2022-09-24T15:24:13;3.37;;;0.40;;
71637;SDS011;59485;43.542;-5.676;2022-09-24T15:26:40;5.82;;;0.65;;
71637;SDS011;59485;43.542;-5.676;2022-09-24T15:29:08;4.70;;;0.70;;
71637;SDS011;59485;43.542;-5.676;2022-09-24T15:31:42;5.43;;;0.50;;
71637;SDS011;59485;43.542;-5.676;2022-09-24T15:34:08;4.30;;;0.60;;
71637;SDS011;59485;43.542;-5.676;2022-09-24T15:36:34;3.92;;;0.73;;
71637;SDS011;59485;43.542;-5.676;2022-09-24T15:39:01;5.03;;;0.47;;
71637;SDS011;59485;43.542;-5.676;2022-09-24T15:41:27;5.63;;;0.32;;
71637;SDS011;59485;43.542;-5.676;2022-09-24T15:43:57;3.87;;;0.73;;
71637;SDS011;59485;43.542;-5.676;2022-09-24T15:46:23;5.80;;;0.40;;
71637;SDS011;59485;43.542;-5.676;2022-09-24T15:48:50;5.43;;;0.75;;
71637;SDS011;59485;43.542;-5.676;2022-09-24T15:51:17;3.63;;;0.60;;
71637;SDS011;59485;43.542;-5.676;2022-09-24T15:53:44;5.15;;;0.40;;
71637;SDS011;59485;43.542;-5.676;2022-09-24T15:56:11;6.15;;;0.95;;
71637;SDS011;59485;43.542;-5.676;2022-09-24T15:58:36;5.47;;;0.82;;
71637;SDS011;59485;43.542;-5.676;2022-09-24T16:01:02;7.30;;;1.20;;
71637;SDS011;59485;43.542;-5.676;2022-09-24T16:03:31;6.60;;;0.80;;
71637;SDS011;59485;43.542;-5.676;2022-09-24T16:05:58;5.20;;;1.52;;
71637;SDS011;59485;43.542;-5.676;2022-09-24T16:08:24;7.60;;;1.33;;
71637;SDS011;59485;43.542;-5.676;2022-09-24T16:10:50;17.77;;;4.73;;
71637;SDS011;59485;43.542;-5.676;2022-09-24T16:13:17;15.02;;;4.10;;
71637;SDS011;59485;43.542;-5.676;2022-09-24T16:15:44;9.05;;;1.33;;
71637;SDS011;59485;43.542;-5.676;2022-09-24T16:18:13;6.43;;;0.70;;
71637;SDS011;59485;43.542;-5.676;2022-09-24T16:20:39;6.60;;;0.85;;
71637;SDS011;59485;43.542;-5.676;2022-09-24T16:23:05;4.40;;;0.60;;
71637;SDS011;59485;43.542;-5.676;2022-09-24T16:25:33;6.47;;;0.88;;
71637;SDS011;59485;43.542;-5.676;2022-09-24T16:27:59;8.43;;;1.20;;
71637;SDS011;59485;43.542;-5.676;2022-09-24T16:30:25;5.97;;;0.70;;
71637;SDS011;59485;43.542;-5.676;2022-09-24T16:32:50;5.53;;;0.57;;
71637;SDS011;59485;43.542;-5.676;2022-09-24T16:35:16;6.63;;;0.47;;
71637;SDS011;59485;43.542;-5.676;2022-09-24T16:37:42;6.53;;;0.60;;
71637;SDS011;59485;43.542;-5.676;2022-09-24T16:40:07;4.50;;;1.02;;
71637;SDS011;59485;43.542;-5.676;2022-09-24T16:42:33;3.67;;;0.53;;
71637;SDS011;59485;43.542;-5.676;2022-09-24T16:44:59;4.38;;;0.60;;
71637;SDS011;59485;43.542;-5.676;2022-09-24T16:47:24;5.40;;;0.60;;
71637;SDS011;59485;43.542;-5.676;2022-09-24T16:49:50;4.03;;;0.50;;
71637;SDS011;59485;43.542;-5.676;2022-09-24T16:52:20;9.07;;;1.00;;
71637;SDS011;59485;43.542;-5.676;2022-09-24T16:54:46;6.60;;;1.40;;
71637;SDS011;59485;43.542;-5.676;2022-09-24T16:57:13;5.10;;;1.23;;
71637;SDS011;59485;43.542;-5.676;2022-09-24T16:59:38;6.65;;;1.17;;
71637;SDS011;59485;43.542;-5.676;2022-09-24T17:02:07;5.07;;;1.47;;
71637;SDS011;59485;43.542;-5.676;2022-09-24T17:04:36;5.10;;;1.45;;
71637;SDS011;59485;43.542;-5.676;2022-09-24T17:07:01;5.82;;;1.60;;
71637;SDS011;59485;43.542;-5.676;2022-09-24T17:09:27;5.83;;;1.33;;
71637;SDS011;59485;43.542;-5.676;2022-09-24T17:12:11;6.65;;;1.05;;
71637;SDS011;59485;43.542;-5.676;2022-09-24T17:14:37;5.93;;;0.97;;